Terminal Aerodrome Forecast
Issued by NWS Cleveland, OH

Home | Current Version | Previous Version | Graphics & Text | Print | Product List | Glossary On
Versions: 1 2 3 4 5 6 7 8 9 10 11 12 13 14
000
FTUS41 KCLE 222300
TAFTOL
TAF
KTOL 222340Z 2300/2324 22006KT P6SM SCT200
     FM230800 25008KT P6SM VCSH BKN040 OVC100
     FM231200 32010KT P6SM OVC018
     FM231800 36010KT P6SM BKN035=

USA.gov is the U.S. government's official web portal to all federal, state and local government web resources and services.